KLAN/LAN METAR and TAF weather

Enter ICAO airport designator
Station Type Date Time Source
KLAN METAR 2022/12/02 22:53 UTC NOAA

KLAN 022253Z 16012G24KT 10SM OVC035 08/M04 A2981 RMK AO2 SLP099 T00831039


Station Type Date Time Source
KLAN Decoded METAR 2022/12/02 22:53 UTC NOAA

CAPITAL CITY AIRPORT, MI, United States (KLAN) 42-47N 084-35W 264M
Dec 02, 2022 - 05:53 PM EST / 2022.12.02 2253 UTC
Wind: from the SSE (160 degrees) at 14 MPH (12 KT) gusting to 28 MPH (24 KT):0
Visibility: 10 mile(s):0
Sky conditions: overcast
Temperature: 46.9 F (8.3 C)
Dew Point: 25.0 F (-3.9 C)
Relative Humidity: 41%
Pressure (altimeter): 29.81 in. Hg (1009 hPa)
ob: KLAN 022253Z 16012G24KT 10SM OVC035 08/M04 A2981 RMK AO2 SLP099 T00831039
cycle: 23

Station Type Date Time Source
KLAN TAF 2022/12/02 18:36 UTC NOAA

TAF KLAN 021735Z 0218/0318 19014G27KT P6SM OVC060
FM030000 19017G35KT P6SM VCSH OVC040 WS020/21045KT
FM030500 21019G32KT P6SM VCSH OVC030
FM030800 23020G36KT 6SM -SHRA BR OVC020 WS020/23050KT
FM031000 26022G37KT 5SM -SHRA BR OVC017
FM031300 28021G35KT P6SM OVC022

Example: see airport list